sensor_id;sensor_type;location;lat;lon;timestamp;pressure;altitude;pressure_sealevel;temperature;humidity
36234;BME280;43467;50.890;5.982;2023-07-24T00:01:58;99190.81;;;19.66;97.72
36234;BME280;43467;50.890;5.982;2023-07-24T00:04:23;99184.91;;;19.62;97.48
36234;BME280;43467;50.890;5.982;2023-07-24T00:06:49;99161.28;;;19.48;97.53
36234;BME280;43467;50.890;5.982;2023-07-24T00:09:15;99181.69;;;19.59;100.00
36234;BME280;43467;50.890;5.982;2023-07-24T00:11:40;99129.16;;;19.29;97.12
36234;BME280;43467;50.890;5.982;2023-07-24T00:14:06;99176.19;;;19.60;96.83
36234;BME280;43467;50.890;5.982;2023-07-24T00:16:32;99175.34;;;19.60;96.66
36234;BME280;43467;50.890;5.982;2023-07-24T00:18:57;99156.06;;;19.46;97.12
36234;BME280;43467;50.890;5.982;2023-07-24T00:21:23;99165.72;;;19.57;96.90
36234;BME280;43467;50.890;5.982;2023-07-24T00:23:49;99168.56;;;19.56;96.96
36234;BME280;43467;50.890;5.982;2023-07-24T00:26:14;99158.75;;;19.46;96.84
36234;BME280;43467;50.890;5.982;2023-07-24T00:28:39;99145.19;;;19.48;95.97
36234;BME280;43467;50.890;5.982;2023-07-24T00:31:05;99157.31;;;19.52;96.16
36234;BME280;43467;50.890;5.982;2023-07-24T00:33:30;99106.16;;;19.26;97.09
36234;BME280;43467;50.890;5.982;2023-07-24T00:35:57;99160.13;;;19.51;95.96
36234;BME280;43467;50.890;5.982;2023-07-24T00:38:23;99132.47;;;19.40;96.54
36234;BME280;43467;50.890;5.982;2023-07-24T00:40:49;99126.56;;;19.37;95.60
36234;BME280;43467;50.890;5.982;2023-07-24T00:43:15;99107.28;;;19.24;95.72
36234;BME280;43467;50.890;5.982;2023-07-24T00:45:40;99137.69;;;19.42;95.24
36234;BME280;43467;50.890;5.982;2023-07-24T00:48:06;99142.94;;;19.43;95.31
36234;BME280;43467;50.890;5.982;2023-07-24T00:50:31;99130.22;;;19.36;94.75
36234;BME280;43467;50.890;5.982;2023-07-24T00:52:57;99127.25;;;19.39;95.03
36234;BME280;43467;50.890;5.982;2023-07-24T00:55:23;99106.56;;;19.31;95.69
36234;BME280;43467;50.890;5.982;2023-07-24T00:57:49;99113.44;;;19.34;95.44
36234;BME280;43467;50.890;5.982;2023-07-24T01:00:15;99122.56;;;19.41;94.17
36234;BME280;43467;50.890;5.982;2023-07-24T01:02:42;99101.72;;;19.35;94.31
36234;BME280;43467;50.890;5.982;2023-07-24T01:05:08;99106.63;;;19.39;93.90
36234;BME280;43467;50.890;5.982;2023-07-24T01:07:36;99102.78;;;19.42;94.19
36234;BME280;43467;50.890;5.982;2023-07-24T01:10:02;99079.16;;;19.28;94.23
36234;BME280;43467;50.890;5.982;2023-07-24T01:12:35;99083.94;;;19.34;94.25
36234;BME280;43467;50.890;5.982;2023-07-24T01:15:11;99086.69;;;19.42;93.81
36234;BME280;43467;50.890;5.982;2023-07-24T01:17:46;99073.88;;;19.36;93.92
36234;BME280;43467;50.890;5.982;2023-07-24T01:20:15;99093.03;;;19.41;93.57
36234;BME280;43467;50.890;5.982;2023-07-24T01:23:03;99082.47;;;19.39;93.77
36234;BME280;43467;50.890;5.982;2023-07-24T01:25:35;99074.19;;;19.33;94.15
36234;BME280;43467;50.890;5.982;2023-07-24T01:28:07;99078.88;;;19.31;93.63
36234;BME280;43467;50.890;5.982;2023-07-24T01:30:33;99087.59;;;19.33;93.45
36234;BME280;43467;50.890;5.982;2023-07-24T01:32:59;99068.66;;;19.34;93.31
36234;BME280;43467;50.890;5.982;2023-07-24T01:35:26;99079.63;;;19.41;92.13
36234;BME280;43467;50.890;5.982;2023-07-24T01:37:53;99077.66;;;19.43;92.70
36234;BME280;43467;50.890;5.982;2023-07-24T01:40:21;99086.81;;;19.40;92.17
36234;BME280;43467;50.890;5.982;2023-07-24T01:42:47;99068.63;;;19.44;92.21
36234;BME280;43467;50.890;5.982;2023-07-24T01:45:13;99069.63;;;19.43;91.74
36234;BME280;43467;50.890;5.982;2023-07-24T01:47:39;99067.03;;;19.41;91.81
36234;BME280;43467;50.890;5.982;2023-07-24T01:50:05;99081.75;;;19.47;91.93
36234;BME280;43467;50.890;5.982;2023-07-24T01:52:30;99048.09;;;19.25;92.07
36234;BME280;43467;50.890;5.982;2023-07-24T01:54:56;99067.78;;;19.43;91.84
36234;BME280;43467;50.890;5.982;2023-07-24T01:57:21;99043.69;;;19.52;92.25
36234;BME280;43467;50.890;5.982;2023-07-24T01:59:47;99055.94;;;19.54;93.36
36234;BME280;43467;50.890;5.982;2023-07-24T02:02:14;99058.41;;;19.47;93.07
36234;BME280;43467;50.890;5.982;2023-07-24T02:04:39;99034.44;;;19.36;93.93
36234;BME280;43467;50.890;5.982;2023-07-24T02:07:05;99040.53;;;19.38;94.62
36234;BME280;43467;50.890;5.982;2023-07-24T02:09:30;99042.50;;;19.36;95.40
36234;BME280;43467;50.890;5.982;2023-07-24T02:11:59;99072.03;;;19.36;95.87
36234;BME280;43467;50.890;5.982;2023-07-24T02:14:24;99063.50;;;19.41;95.61
36234;BME280;43467;50.890;5.982;2023-07-24T02:16:51;99025.25;;;19.21;96.11
36234;BME280;43467;50.890;5.982;2023-07-24T02:19:17;99039.59;;;19.30;96.44
36234;BME280;43467;50.890;5.982;2023-07-24T02:21:42;99005.94;;;19.18;96.49
36234;BME280;43467;50.890;5.982;2023-07-24T02:24:11;99007.41;;;19.30;96.69
36234;BME280;43467;50.890;5.982;2023-07-24T02:26:36;99013.69;;;19.21;96.13
36234;BME280;43467;50.890;5.982;2023-07-24T02:29:02;99022.72;;;19.20;96.50
36234;BME280;43467;50.890;5.982;2023-07-24T02:31:28;99039.59;;;19.30;96.59
36234;BME280;43467;50.890;5.982;2023-07-24T02:33:53;99017.91;;;19.06;96.83
36234;BME280;43467;50.890;5.982;2023-07-24T02:36:18;98989.41;;;18.87;97.29
36234;BME280;43467;50.890;5.982;2023-07-24T02:38:44;99026.63;;;19.08;96.53
36234;BME280;43467;50.890;5.982;2023-07-24T02:41:10;98964.16;;;18.80;96.97
36234;BME280;43467;50.890;5.982;2023-07-24T02:43:35;98975.06;;;18.78;96.24
36234;BME280;43467;50.890;5.982;2023-07-24T02:46:02;99022.28;;;19.07;97.74
36234;BME280;43467;50.890;5.982;2023-07-24T02:48:28;99001.28;;;19.02;97.11
36234;BME280;43467;50.890;5.982;2023-07-24T02:50:53;98992.16;;;18.95;96.98
36234;BME280;43467;50.890;5.982;2023-07-24T02:53:19;98998.25;;;18.87;97.04
36234;BME280;43467;50.890;5.982;2023-07-24T02:55:44;99026.41;;;19.01;97.07
36234;BME280;43467;50.890;5.982;2023-07-24T02:58:13;99004.03;;;18.92;96.88
36234;BME280;43467;50.890;5.982;2023-07-24T03:00:39;98996.97;;;18.91;96.70
36234;BME280;43467;50.890;5.982;2023-07-24T03:03:05;98994.19;;;18.83;97.02
36234;BME280;43467;50.890;5.982;2023-07-24T03:05:32;98979.88;;;18.75;96.71
36234;BME280;43467;50.890;5.982;2023-07-24T03:07:58;99005.25;;;18.98;96.19
36234;BME280;43467;50.890;5.982;2023-07-24T03:10:24;98972.31;;;18.70;95.73
36234;BME280;43467;50.890;5.982;2023-07-24T03:12:50;98989.69;;;18.84;96.29
36234;BME280;43467;50.890;5.982;2023-07-24T03:15:15;99028.25;;;19.00;95.73
36234;BME280;43467;50.890;5.982;2023-07-24T03:17:40;99013.53;;;19.04;95.77
36234;BME280;43467;50.890;5.982;2023-07-24T03:20:20;99014.69;;;19.02;96.18
36234;BME280;43467;50.890;5.982;2023-07-24T03:22:46;99012.47;;;18.97;95.99
36234;BME280;43467;50.890;5.982;2023-07-24T03:25:11;99004.28;;;18.99;96.13
36234;BME280;43467;50.890;5.982;2023-07-24T03:27:38;99004.28;;;18.99;96.04
36234;BME280;43467;50.890;5.982;2023-07-24T03:30:04;98979.28;;;18.98;95.75
36234;BME280;43467;50.890;5.982;2023-07-24T03:32:29;98996.06;;;19.00;95.69
36234;BME280;43467;50.890;5.982;2023-07-24T03:34:55;98986.38;;;19.08;95.23
36234;BME280;43467;50.890;5.982;2023-07-24T03:37:22;98993.06;;;19.03;95.53
36234;BME280;43467;50.890;5.982;2023-07-24T03:39:48;98968.16;;;18.93;94.84
36234;BME280;43467;50.890;5.982;2023-07-24T03:42:31;98986.03;;;19.02;95.46
36234;BME280;43467;50.890;5.982;2023-07-24T03:44:58;98988.53;;;19.04;95.22
36234;BME280;43467;50.890;5.982;2023-07-24T03:47:25;98941.19;;;18.77;94.73
36234;BME280;43467;50.890;5.982;2023-07-24T03:49:50;98987.94;;;19.10;94.89
36234;BME280;43467;50.890;5.982;2023-07-24T03:52:17;98965.41;;;18.85;94.68
36234;BME280;43467;50.890;5.982;2023-07-24T03:54:42;98985.09;;;19.12;94.97
36234;BME280;43467;50.890;5.982;2023-07-24T03:57:08;98974.66;;;19.09;94.78
36234;BME280;43467;50.890;5.982;2023-07-24T03:59:33;98971.78;;;19.02;94.36
36234;BME280;43467;50.890;5.982;2023-07-24T04:01:59;98985.56;;;19.07;95.15
36234;BME280;43467;50.890;5.982;2023-07-24T04:04:25;98979.13;;;19.00;94.76
36234;BME280;43467;50.890;5.982;2023-07-24T04:06:50;98986.03;;;19.02;94.33
36234;BME280;43467;50.890;5.982;2023-07-24T04:09:16;98957.81;;;18.98;94.98
36234;BME280;43467;50.890;5.982;2023-07-24T04:11:43;98968.00;;;19.13;94.35
36234;BME280;43467;50.890;5.982;2023-07-24T04:14:09;98955.50;;;19.03;94.40
36234;BME280;43467;50.890;5.982;2023-07-24T04:16:35;98961.72;;;19.04;94.29
36234;BME280;43467;50.890;5.982;2023-07-24T04:19:01;98937.66;;;18.77;94.11
36234;BME280;43467;50.890;5.982;2023-07-24T04:21:26;98984.66;;;18.98;94.50
36234;BME280;43467;50.890;5.982;2023-07-24T04:23:52;98972.69;;;18.93;94.13
36234;BME280;43467;50.890;5.982;2023-07-24T04:26:17;98989.47;;;18.95;94.18
36234;BME280;43467;50.890;5.982;2023-07-24T04:28:43;98990.69;;;19.00;94.56
36234;BME280;43467;50.890;5.982;2023-07-24T04:31:08;98984.34;;;19.01;94.70
36234;BME280;43467;50.890;5.982;2023-07-24T04:33:34;98979.28;;;18.98;94.05
36234;BME280;43467;50.890;5.982;2023-07-24T04:36:00;98979.13;;;19.00;93.49
36234;BME280;43467;50.890;5.982;2023-07-24T04:38:26;98947.00;;;18.73;94.07
36234;BME280;43467;50.890;5.982;2023-07-24T04:40:52;98971.84;;;18.92;93.60
36234;BME280;43467;50.890;5.982;2023-07-24T04:43:17;98993.06;;;19.03;93.20
36234;BME280;43467;50.890;5.982;2023-07-24T04:45:43;98987.72;;;18.86;93.03
36234;BME280;43467;50.890;5.982;2023-07-24T04:48:08;99001.97;;;18.86;93.29
36234;BME280;43467;50.890;5.982;2023-07-24T04:50:34;99021.09;;;18.91;92.98
36234;BME280;43467;50.890;5.982;2023-07-24T04:52:59;99006.22;;;18.79;92.92
36234;BME280;43467;50.890;5.982;2023-07-24T04:55:25;99024.41;;;18.85;92.74
36234;BME280;43467;50.890;5.982;2023-07-24T04:57:51;99025.72;;;18.81;92.88
36234;BME280;43467;50.890;5.982;2023-07-24T05:00:16;99041.94;;;18.80;92.77
36234;BME280;43467;50.890;5.982;2023-07-24T05:02:42;99033.03;;;18.79;93.04
36234;BME280;43467;50.890;5.982;2023-07-24T05:05:08;99034.56;;;18.64;93.35
36234;BME280;43467;50.890;5.982;2023-07-24T05:07:34;99037.72;;;18.77;93.07
36234;BME280;43467;50.890;5.982;2023-07-24T05:10:02;99028.31;;;18.73;93.12
36234;BME280;43467;50.890;5.982;2023-07-24T05:12:28;99040.72;;;18.74;92.79
36234;BME280;43467;50.890;5.982;2023-07-24T05:14:53;99048.69;;;18.84;93.25
36234;BME280;43467;50.890;5.982;2023-07-24T05:17:19;99015.56;;;18.58;92.67
36234;BME280;43467;50.890;5.982;2023-07-24T05:19:45;99058.56;;;18.83;92.46
36234;BME280;43467;50.890;5.982;2023-07-24T05:22:10;98997.34;;;18.51;92.47
36234;BME280;43467;50.890;5.982;2023-07-24T05:24:36;99055.75;;;18.85;91.92
36234;BME280;43467;50.890;5.982;2023-07-24T05:27:05;99041.19;;;18.87;91.82
36234;BME280;43467;50.890;5.982;2023-07-24T05:29:31;99025.72;;;18.81;91.30
36234;BME280;43467;50.890;5.982;2023-07-24T05:31:57;99043.94;;;18.95;91.62
36234;BME280;43467;50.890;5.982;2023-07-24T05:34:25;99034.78;;;18.98;91.08
36234;BME280;43467;50.890;5.982;2023-07-24T05:36:51;99047.88;;;19.01;91.35
36234;BME280;43467;50.890;5.982;2023-07-24T05:39:17;99031.31;;;19.06;90.86
36234;BME280;43467;50.890;5.982;2023-07-24T05:41:42;99041.84;;;18.99;90.21
36234;BME280;43467;50.890;5.982;2023-07-24T05:44:08;99044.09;;;19.12;90.61
36234;BME280;43467;50.890;5.982;2023-07-24T05:46:34;99037.22;;;19.09;90.84
36234;BME280;43467;50.890;5.982;2023-07-24T05:49:00;99019.50;;;19.16;90.70
36234;BME280;43467;50.890;5.982;2023-07-24T05:51:27;99035.69;;;19.24;90.59
36234;BME280;43467;50.890;5.982;2023-07-24T05:53:52;99029.38;;;19.16;89.52
36234;BME280;43467;50.890;5.982;2023-07-24T05:56:18;99036.22;;;19.28;90.63
36234;BME280;43467;50.890;5.982;2023-07-24T05:58:44;99034.31;;;19.20;90.01
36234;BME280;43467;50.890;5.982;2023-07-24T06:01:10;99022.56;;;19.21;90.30
36234;BME280;43467;50.890;5.982;2023-07-24T06:03:36;99022.78;;;19.28;89.90
36234;BME280;43467;50.890;5.982;2023-07-24T06:06:02;99030.88;;;19.45;89.91
36234;BME280;43467;50.890;5.982;2023-07-24T06:08:27;99020.88;;;19.38;89.05
36234;BME280;43467;50.890;5.982;2023-07-24T06:10:53;99029.06;;;19.36;88.88
36234;BME280;43467;50.890;5.982;2023-07-24T06:13:19;99034.09;;;19.49;88.41
36234;BME280;43467;50.890;5.982;2023-07-24T06:15:49;99005.78;;;19.37;88.34
36234;BME280;43467;50.890;5.982;2023-07-24T06:18:16;99053.13;;;19.56;87.83
36234;BME280;43467;50.890;5.982;2023-07-24T06:20:41;99021.56;;;19.40;87.45
36234;BME280;43467;50.890;5.982;2023-07-24T06:23:07;99040.22;;;19.59;87.47
36234;BME280;43467;50.890;5.982;2023-07-24T06:25:33;99009.75;;;19.33;86.79
36234;BME280;43467;50.890;5.982;2023-07-24T06:27:59;99023.88;;;19.35;86.38
36234;BME280;43467;50.890;5.982;2023-07-24T06:30:25;99044.81;;;19.49;86.74
36234;BME280;43467;50.890;5.982;2023-07-24T06:32:50;99039.34;;;19.41;86.71
36234;BME280;43467;50.890;5.982;2023-07-24T06:35:16;99021.81;;;19.29;85.95
36234;BME280;43467;50.890;5.982;2023-07-24T06:37:42;99025.75;;;19.52;86.78
36234;BME280;43467;50.890;5.982;2023-07-24T06:40:09;99030.03;;;19.45;85.77
36234;BME280;43467;50.890;5.982;2023-07-24T06:42:35;99032.72;;;19.45;85.62
36234;BME280;43467;50.890;5.982;2023-07-24T06:45:01;99028.19;;;19.45;85.86
36234;BME280;43467;50.890;5.982;2023-07-24T06:47:26;99044.53;;;19.52;85.99
36234;BME280;43467;50.890;5.982;2023-07-24T06:49:52;99035.09;;;19.48;85.10
36234;BME280;43467;50.890;5.982;2023-07-24T06:52:18;99034.09;;;19.49;85.00
36234;BME280;43467;50.890;5.982;2023-07-24T06:54:43;99036.78;;;19.49;84.93
36234;BME280;43467;50.890;5.982;2023-07-24T06:57:12;99034.72;;;19.43;84.69
36234;BME280;43467;50.890;5.982;2023-07-24T06:59:37;99013.69;;;19.38;84.47
36234;BME280;43467;50.890;5.982;2023-07-24T07:02:03;99042.84;;;19.51;84.83
36234;BME280;43467;50.890;5.982;2023-07-24T07:04:29;99021.41;;;19.41;84.57
36234;BME280;43467;50.890;5.982;2023-07-24T07:06:55;99018.81;;;19.49;84.39
36234;BME280;43467;50.890;5.982;2023-07-24T07:09:21;99029.09;;;19.54;84.16
36234;BME280;43467;50.890;5.982;2023-07-24T07:11:47;99009.16;;;19.39;84.46
36234;BME280;43467;50.890;5.982;2023-07-24T07:14:12;99026.22;;;19.73;84.18
36234;BME280;43467;50.890;5.982;2023-07-24T07:16:39;99027.84;;;19.66;83.30
36234;BME280;43467;50.890;5.982;2023-07-24T07:19:06;99019.19;;;19.72;83.06
36234;BME280;43467;50.890;5.982;2023-07-24T07:21:32;99029.75;;;19.74;83.56
36234;BME280;43467;50.890;5.982;2023-07-24T07:23:58;99016.22;;;19.83;83.38
36234;BME280;43467;50.890;5.982;2023-07-24T07:26:24;99016.59;;;19.88;83.42
36234;BME280;43467;50.890;5.982;2023-07-24T07:28:50;98979.03;;;19.45;83.05
36234;BME280;43467;50.890;5.982;2023-07-24T07:31:16;98966.69;;;19.52;82.96
36234;BME280;43467;50.890;5.982;2023-07-24T07:33:42;98972.56;;;19.38;83.09
36234;BME280;43467;50.890;5.982;2023-07-24T07:36:07;98938.41;;;19.22;83.79
36234;BME280;43467;50.890;5.982;2023-07-24T07:38:33;98995.91;;;19.55;83.87
36234;BME280;43467;50.890;5.982;2023-07-24T07:41:04;99020.63;;;19.67;84.86
36234;BME280;43467;50.890;5.982;2023-07-24T07:43:30;99024.56;;;19.72;84.66
36234;BME280;43467;50.890;5.982;2023-07-24T07:45:59;99018.28;;;19.64;84.01
36234;BME280;43467;50.890;5.982;2023-07-24T07:48:25;99020.56;;;19.76;84.00
36234;BME280;43467;50.890;5.982;2023-07-24T07:50:51;99007.34;;;19.65;83.27
36234;BME280;43467;50.890;5.982;2023-07-24T07:53:20;99007.06;;;19.68;83.93
36234;BME280;43467;50.890;5.982;2023-07-24T07:55:46;99020.31;;;19.70;83.73
36234;BME280;43467;50.890;5.982;2023-07-24T07:58:11;99025.75;;;19.78;84.31
36234;BME280;43467;50.890;5.982;2023-07-24T08:00:37;98991.38;;;19.56;82.80
36234;BME280;43467;50.890;5.982;2023-07-24T08:03:07;98984.50;;;19.61;82.07
36234;BME280;43467;50.890;5.982;2023-07-24T08:05:33;99016.94;;;19.93;81.56
36234;BME280;43467;50.890;5.982;2023-07-24T08:07:59;98991.44;;;19.98;81.43
36234;BME280;43467;50.890;5.982;2023-07-24T08:10:27;98993.00;;;20.00;81.15
36234;BME280;43467;50.890;5.982;2023-07-24T08:12:52;99002.13;;;20.15;80.87
36234;BME280;43467;50.890;5.982;2023-07-24T08:15:18;98984.28;;;20.06;80.73
36234;BME280;43467;50.890;5.982;2023-07-24T08:17:44;98995.47;;;20.27;79.77
36234;BME280;43467;50.890;5.982;2023-07-24T08:20:09;98997.78;;;20.22;78.25
36234;BME280;43467;50.890;5.982;2023-07-24T08:22:35;98984.94;;;20.00;78.32
36234;BME280;43467;50.890;5.982;2023-07-24T08:25:01;99011.16;;;20.06;78.44
36234;BME280;43467;50.890;5.982;2023-07-24T08:27:29;98946.72;;;19.80;78.26
36234;BME280;43467;50.890;5.982;2023-07-24T08:29:55;98975.50;;;19.96;78.46
36234;BME280;43467;50.890;5.982;2023-07-24T08:32:21;98992.69;;;20.11;79.37
36234;BME280;43467;50.890;5.982;2023-07-24T08:34:46;98952.00;;;19.98;78.68
36234;BME280;43467;50.890;5.982;2023-07-24T08:37:12;98959.94;;;20.08;78.30
36234;BME280;43467;50.890;5.982;2023-07-24T08:39:38;98978.97;;;20.22;78.07
36234;BME280;43467;50.890;5.982;2023-07-24T08:42:13;98985.78;;;20.34;77.70
36234;BME280;43467;50.890;5.982;2023-07-24T08:44:39;98988.66;;;20.33;77.36
36234;BME280;43467;50.890;5.982;2023-07-24T08:47:10;98951.41;;;20.12;77.33
36234;BME280;43467;50.890;5.982;2023-07-24T08:49:38;98981.97;;;20.45;78.08
36234;BME280;43467;50.890;5.982;2023-07-24T08:52:05;98984.34;;;20.56;77.09
36234;BME280;43467;50.890;5.982;2023-07-24T08:54:33;98935.88;;;20.32;76.59
36234;BME280;43467;50.890;5.982;2023-07-24T08:57:02;98989.13;;;20.70;75.92
36234;BME280;43467;50.890;5.982;2023-07-24T08:59:28;98947.34;;;20.50;75.60
36234;BME280;43467;50.890;5.982;2023-07-24T09:01:56;98973.47;;;20.66;75.39
36234;BME280;43467;50.890;5.982;2023-07-24T09:04:22;98959.66;;;20.61;75.27
36234;BME280;43467;50.890;5.982;2023-07-24T09:06:48;98956.13;;;20.60;75.44
36234;BME280;43467;50.890;5.982;2023-07-24T09:09:15;98919.28;;;20.45;75.85
36234;BME280;43467;50.890;5.982;2023-07-24T09:11:51;98945.38;;;20.68;75.38
36234;BME280;43467;50.890;5.982;2023-07-24T09:14:25;98957.34;;;20.74;74.87
36234;BME280;43467;50.890;5.982;2023-07-24T09:17:08;98950.94;;;20.75;75.11
36234;BME280;43467;50.890;5.982;2023-07-24T09:19:34;98957.16;;;20.75;76.01
36234;BME280;43467;50.890;5.982;2023-07-24T09:22:14;98955.31;;;20.76;75.33
36234;BME280;43467;50.890;5.982;2023-07-24T09:24:54;98961.03;;;20.73;75.16
36234;BME280;43467;50.890;5.982;2023-07-24T09:27:23;98952.63;;;20.76;74.79
36234;BME280;43467;50.890;5.982;2023-07-24T09:29:50;98902.16;;;20.54;75.06
36234;BME280;43467;50.890;5.982;2023-07-24T09:32:24;98938.31;;;20.75;75.02
36234;BME280;43467;50.890;5.982;2023-07-24T09:34:51;98935.47;;;20.69;74.95
36234;BME280;43467;50.890;5.982;2023-07-24T09:37:27;98918.84;;;20.73;74.47
36234;BME280;43467;50.890;5.982;2023-07-24T09:39:54;98905.03;;;20.68;75.09
36234;BME280;43467;50.890;5.982;2023-07-24T09:42:30;98911.78;;;20.80;74.14
36234;BME280;43467;50.890;5.982;2023-07-24T09:44:55;98909.25;;;20.95;74.95
36234;BME280;43467;50.890;5.982;2023-07-24T09:47:22;98897.81;;;21.09;74.40
36234;BME280;43467;50.890;5.982;2023-07-24T09:49:48;98893.47;;;21.16;73.83
36234;BME280;43467;50.890;5.982;2023-07-24T09:52:14;98893.28;;;21.42;72.82
36234;BME280;43467;50.890;5.982;2023-07-24T09:54:52;98878.41;;;21.62;72.95
36234;BME280;43467;50.890;5.982;2023-07-24T09:57:20;98846.91;;;21.71;73.13
36234;BME280;43467;50.890;5.982;2023-07-24T09:59:48;98878.13;;;22.04;70.90
36234;BME280;43467;50.890;5.982;2023-07-24T10:02:15;98836.22;;;21.86;69.49
36234;BME280;43467;50.890;5.982;2023-07-24T10:04:42;98854.06;;;21.87;69.92
36234;BME280;43467;50.890;5.982;2023-07-24T10:07:08;98875.28;;;21.90;70.77
36234;BME280;43467;50.890;5.982;2023-07-24T10:09:35;98877.47;;;21.86;71.30
36234;BME280;43467;50.890;5.982;2023-07-24T10:12:02;98874.44;;;21.89;71.30
36234;BME280;43467;50.890;5.982;2023-07-24T10:14:28;98873.97;;;21.77;71.78
36234;BME280;43467;50.890;5.982;2023-07-24T10:16:56;98832.66;;;21.54;72.05
36234;BME280;43467;50.890;5.982;2023-07-24T10:19:22;98858.53;;;21.71;73.38
36234;BME280;43467;50.890;5.982;2023-07-24T10:21:48;98860.88;;;21.66;73.15
36234;BME280;43467;50.890;5.982;2023-07-24T10:24:17;98842.56;;;21.54;73.58
36234;BME280;43467;50.890;5.982;2023-07-24T10:26:43;98862.59;;;21.59;73.98
36234;BME280;43467;50.890;5.982;2023-07-24T10:29:09;98874.25;;;21.52;75.85
36234;BME280;43467;50.890;5.982;2023-07-24T10:31:35;98853.41;;;21.38;79.05
36234;BME280;43467;50.890;5.982;2023-07-24T10:34:07;98869.72;;;21.36;79.29
36234;BME280;43467;50.890;5.982;2023-07-24T10:36:34;98870.56;;;21.28;81.07
36234;BME280;43467;50.890;5.982;2023-07-24T10:39:00;98891.97;;;21.22;81.92
36234;BME280;43467;50.890;5.982;2023-07-24T10:41:37;98910.44;;;21.01;88.41
36234;BME280;43467;50.890;5.982;2023-07-24T10:44:06;98906.25;;;20.82;88.43
36234;BME280;43467;50.890;5.982;2023-07-24T10:46:41;98924.38;;;20.72;89.81
36234;BME280;43467;50.890;5.982;2023-07-24T10:49:11;98912.13;;;20.77;90.60
36234;BME280;43467;50.890;5.982;2023-07-24T10:51:37;98909.91;;;20.65;91.33
36234;BME280;43467;50.890;5.982;2023-07-24T10:54:04;98913.09;;;20.68;90.81
36234;BME280;43467;50.890;5.982;2023-07-24T10:56:30;98910.44;;;20.76;90.92
36234;BME280;43467;50.890;5.982;2023-07-24T10:58:56;98881.47;;;20.46;91.60
36234;BME280;43467;50.890;5.982;2023-07-24T11:01:27;98921.88;;;20.78;91.69
36234;BME280;43467;50.890;5.982;2023-07-24T11:03:54;98896.47;;;20.73;92.87
36234;BME280;43467;50.890;5.982;2023-07-24T11:06:20;98924.38;;;20.88;92.42
36234;BME280;43467;50.890;5.982;2023-07-24T11:08:57;98911.75;;;20.72;90.14
36234;BME280;43467;50.890;5.982;2023-07-24T11:11:31;98964.16;;;20.52;85.48
36234;BME280;43467;50.890;5.982;2023-07-24T11:13:57;98947.94;;;20.28;85.05
36234;BME280;43467;50.890;5.982;2023-07-24T11:16:22;98929.75;;;20.22;86.12
36234;BME280;43467;50.890;5.982;2023-07-24T11:18:50;98931.25;;;20.16;85.61
36234;BME280;43467;50.890;5.982;2023-07-24T11:21:19;98887.22;;;19.67;87.38
36234;BME280;43467;50.890;5.982;2023-07-24T11:23:50;98941.53;;;19.87;90.56
36234;BME280;43467;50.890;5.982;2023-07-24T11:26:18;98932.84;;;20.01;91.91
36234;BME280;43467;50.890;5.982;2023-07-24T11:28:44;98939.59;;;20.05;91.69
36234;BME280;43467;50.890;5.982;2023-07-24T11:31:09;98950.50;;;20.04;91.79
36234;BME280;43467;50.890;5.982;2023-07-24T11:33:37;98955.94;;;20.12;92.71
36234;BME280;43467;50.890;5.982;2023-07-24T11:36:03;98954.97;;;20.21;92.38
36234;BME280;43467;50.890;5.982;2023-07-24T11:38:29;98950.59;;;20.20;87.05
36234;BME280;43467;50.890;5.982;2023-07-24T11:40:55;98951.16;;;20.31;88.27
36234;BME280;43467;50.890;5.982;2023-07-24T11:43:23;98946.69;;;20.48;87.57
36234;BME280;43467;50.890;5.982;2023-07-24T11:45:50;98924.63;;;20.36;85.63
36234;BME280;43467;50.890;5.982;2023-07-24T11:48:20;98933.75;;;20.60;87.61
36234;BME280;43467;50.890;5.982;2023-07-24T11:50:51;98925.34;;;20.63;82.32
36234;BME280;43467;50.890;5.982;2023-07-24T11:55:52;98895.59;;;20.56;82.40
36234;BME280;43467;50.890;5.982;2023-07-24T11:58:19;98858.59;;;20.34;80.63
36234;BME280;43467;50.890;5.982;2023-07-24T12:00:49;98884.72;;;20.66;79.47
36234;BME280;43467;50.890;5.982;2023-07-24T12:03:28;98881.34;;;20.72;80.94
36234;BME280;43467;50.890;5.982;2023-07-24T12:05:54;98870.22;;;20.83;81.26
36234;BME280;43467;50.890;5.982;2023-07-24T12:08:30;98894.47;;;21.15;82.69
36234;BME280;43467;50.890;5.982;2023-07-24T12:10:55;98879.66;;;21.27;79.53
36234;BME280;43467;50.890;5.982;2023-07-24T12:13:21;98886.19;;;21.49;81.52
36234;BME280;43467;50.890;5.982;2023-07-24T12:15:48;98888.53;;;21.52;79.49
36234;BME280;43467;50.890;5.982;2023-07-24T12:18:14;98889.72;;;21.50;79.37
36234;BME280;43467;50.890;5.982;2023-07-24T12:20:40;98886.38;;;21.31;77.35
36234;BME280;43467;50.890;5.982;2023-07-24T12:23:06;98884.22;;;21.35;78.35
36234;BME280;43467;50.890;5.982;2023-07-24T12:25:32;98911.81;;;21.29;78.06
36234;BME280;43467;50.890;5.982;2023-07-24T12:27:57;98909.94;;;20.89;79.29
36234;BME280;43467;50.890;5.982;2023-07-24T12:30:25;98916.97;;;20.66;79.04
36234;BME280;43467;50.890;5.982;2023-07-24T12:32:50;98910.72;;;20.49;80.84
36234;BME280;43467;50.890;5.982;2023-07-24T12:35:17;98924.28;;;20.31;80.56
36234;BME280;43467;50.890;5.982;2023-07-24T12:37:46;98906.59;;;20.21;83.62
36234;BME280;43467;50.890;5.982;2023-07-24T12:40:12;98923.34;;;20.15;83.10
36234;BME280;43467;50.890;5.982;2023-07-24T12:42:38;98910.69;;;19.99;84.28
36234;BME280;43467;50.890;5.982;2023-07-24T12:45:04;98904.34;;;20.08;83.75
36234;BME280;43467;50.890;5.982;2023-07-24T12:47:31;98888.22;;;20.00;84.66
36234;BME280;43467;50.890;5.982;2023-07-24T12:49:57;98920.28;;;20.44;84.29
36234;BME280;43467;50.890;5.982;2023-07-24T12:52:25;98931.25;;;20.66;83.54
36234;BME280;43467;50.890;5.982;2023-07-24T12:54:50;98894.09;;;20.46;80.10
36234;BME280;43467;50.890;5.982;2023-07-24T12:57:16;98941.38;;;20.80;78.71
36234;BME280;43467;50.890;5.982;2023-07-24T12:59:41;98928.06;;;20.87;79.21
36234;BME280;43467;50.890;5.982;2023-07-24T13:02:08;98953.84;;;20.90;78.04